Terminal Aerodrome Forecast
Issued by NWS St Louis, MO

Home | Current Version | Previous Version | Text Only | Print | Product List | Glossary On
Versions: 1 2 3 4 5 6 7 8 9 10 11 12 13 14 15 16 17 18 19 20 21 22 23 24 25
000
FTUS43 KLSX 261100
TAFSTL
TAF
KSTL 261120Z 2612/2718 18006KT P6SM BKN100
     FM261500 23012KT P6SM SCT250
     FM262100 23012KT P6SM VCTS FEW060CB BKN250
     FM270100 23008KT P6SM SCT200
     FM271200 30012KT P6SM SCT040=

USA.gov is the U.S. government's official web portal to all federal, state and local government web resources and services.